Time;durP1;ratioP1;P1;durP2;ratioP2;P2;SDS_P1;SDS_P2;PMS_P1;PMS_P2;Temp;Humidity;BMP_temperature;BMP_pressure;BME280_temperature;BME280_humidity;BME280_pressure;Samples;Min_cycle;Max_cycle;Signal;HPM_P1;HPM_P2
2022/07/10 00:00:39;;;;;;;3.17;2.87;;;;;;;;;;5014362;28;20409;-67
2022/07/10 00:03:06;;;;;;;3.90;3.60;;;;;;;;;;4996522;28;20432;-67
2022/07/10 00:05:34;;;;;;;5.03;2.87;;;;;;;;;;5014268;28;20420;-68
2022/07/10 00:08:00;;;;;;;2.83;2.77;;;;;;;;;;5014198;28;20973;-68
2022/07/10 00:10:28;;;;;;;3.13;3.00;;;;;;;;;;5014240;28;20502;-67
2022/07/10 00:12:54;;;;;;;3.20;3.10;;;;;;;;;;4996552;28;20417;-68
2022/07/10 00:15:20;;;;;;;3.63;3.40;;;;;;;;;;4996480;28;20420;-68
2022/07/10 00:17:46;;;;;;;3.33;3.10;;;;;;;;;;5014348;28;20421;-68
2022/07/10 00:20:13;;;;;;;3.50;3.40;;;;;;;;;;5014303;28;20832;-68
2022/07/10 00:22:40;;;;;;;3.03;2.73;;;;;;;;;;5013964;28;20409;-68
2022/07/10 00:25:06;;;;;;;3.20;3.20;;;;;;;;;;5014173;28;20489;-68
2022/07/10 00:27:32;;;;;;;4.47;3.60;;;;;;;;;;5013927;28;20448;-67
2022/07/10 00:29:58;;;;;;;3.30;3.17;;;;;;;;;;4996147;28;20513;-68
2022/07/10 00:32:25;;;;;;;3.27;3.17;;;;;;;;;;5013891;28;20406;-68
2022/07/10 00:34:51;;;;;;;3.93;3.63;;;;;;;;;;5013927;28;20390;-67
2022/07/10 00:37:17;;;;;;;3.27;3.00;;;;;;;;;;5013772;28;20506;-68
2022/07/10 00:39:43;;;;;;;7.43;3.23;;;;;;;;;;5014013;28;20405;-67
2022/07/10 00:42:10;;;;;;;3.90;3.50;;;;;;;;;;5013709;28;20413;-68
2022/07/10 00:44:36;;;;;;;3.83;3.63;;;;;;;;;;5013745;28;20919;-67
2022/07/10 00:47:04;;;;;;;4.20;3.30;;;;;;;;;;5013701;28;20842;-68
2022/07/10 00:49:30;;;;;;;5.33;3.93;;;;;;;;;;5013677;28;20472;-68
2022/07/10 00:51:56;;;;;;;4.07;3.77;;;;;;;;;;5013582;28;20427;-68
2022/07/10 00:54:22;;;;;;;3.90;3.80;;;;;;;;;;5013609;28;20501;-67
2022/07/10 00:56:48;;;;;;;3.37;3.37;;;;;;;;;;4996289;28;20421;-67
2022/07/10 00:59:14;;;;;;;3.80;3.70;;;;;;;;;;5013690;28;20410;-68
2022/07/10 01:01:40;;;;;;;4.10;3.80;;;;;;;;;;5013549;28;20414;-68
2022/07/10 01:04:06;;;;;;;3.73;3.63;;;;;;;;;;5013339;28;20492;-68
2022/07/10 01:06:32;;;;;;;4.03;3.63;;;;;;;;;;5013433;28;20475;-68
2022/07/10 01:08:58;;;;;;;3.57;3.47;;;;;;;;;;5013393;28;20464;-67
2022/07/10 01:11:24;;;;;;;3.70;3.60;;;;;;;;;;5013385;28;20412;-67
2022/07/10 01:13:50;;;;;;;4.33;4.03;;;;;;;;;;5013428;28;20425;-68
2022/07/10 01:16:17;;;;;;;4.43;4.13;;;;;;;;;;4995692;28;20774;-67
2022/07/10 01:18:43;;;;;;;3.93;3.73;;;;;;;;;;4995777;28;20829;-68
2022/07/10 01:21:29;;;;;;;3.67;3.50;;;;;;;;;;5013364;28;20445;-68
2022/07/10 01:23:55;;;;;;;4.10;3.83;;;;;;;;;;5013336;28;20418;-67
2022/07/10 01:26:23;;;;;;;4.70;3.80;;;;;;;;;;5013304;28;20409;-67
2022/07/10 01:28:49;;;;;;;4.20;4.10;;;;;;;;;;5013294;28;20547;-67
2022/07/10 01:31:15;;;;;;;4.20;4.00;;;;;;;;;;5013230;28;20418;-68
2022/07/10 01:33:42;;;;;;;4.57;4.27;;;;;;;;;;5013505;28;20445;-68
2022/07/10 01:36:08;;;;;;;5.93;4.00;;;;;;;;;;5013303;28;21006;-68
2022/07/10 01:38:34;;;;;;;4.33;4.23;;;;;;;;;;5013184;28;20616;-68
2022/07/10 01:41:00;;;;;;;4.60;4.00;;;;;;;;;;5013203;28;20438;-68
2022/07/10 01:43:26;;;;;;;7.60;4.03;;;;;;;;;;5016539;28;20401;-68
2022/07/10 01:45:52;;;;;;;4.27;4.17;;;;;;;;;;5016896;28;20420;-68
2022/07/10 01:48:18;;;;;;;4.53;4.30;;;;;;;;;;5016765;28;20557;-68
2022/07/10 01:50:44;;;;;;;5.23;4.03;;;;;;;;;;5017048;28;20416;-67
2022/07/10 01:53:10;;;;;;;4.50;4.40;;;;;;;;;;5016860;28;20403;-67
2022/07/10 01:55:37;;;;;;;4.80;4.33;;;;;;;;;;5016720;28;20503;-67
2022/07/10 01:58:03;;;;;;;4.93;4.63;;;;;;;;;;4999035;28;20433;-68
2022/07/10 02:00:29;;;;;;;6.53;4.37;;;;;;;;;;5016732;28;20857;-68
2022/07/10 02:05:39;;;;;;;4.33;4.13;;;;;;;;;;5016571;28;20554;-67
2022/07/10 02:08:06;;;;;;;4.47;4.37;;;;;;;;;;5016388;28;20471;-67
2022/07/10 02:10:32;;;;;;;4.70;4.50;;;;;;;;;;5016381;28;20895;-67
2022/07/10 02:12:58;;;;;;;5.43;4.47;;;;;;;;;;5016417;28;20931;-67
2022/07/10 02:15:24;;;;;;;5.13;4.63;;;;;;;;;;4999036;28;20495;-67
2022/07/10 02:17:50;;;;;;;4.47;4.17;;;;;;;;;;5016314;28;20408;-67
2022/07/10 02:20:16;;;;;;;4.77;4.60;;;;;;;;;;5016231;28;20891;-69
2022/07/10 02:22:42;;;;;;;5.07;4.87;;;;;;;;;;5016529;28;20412;-69
2022/07/10 02:25:08;;;;;;;5.63;5.20;;;;;;;;;;5016196;28;20413;-68
2022/07/10 02:27:34;;;;;;;4.90;4.70;;;;;;;;;;4998552;28;20453;-68
2022/07/10 02:30:00;;;;;;;5.13;4.83;;;;;;;;;;5015953;28;20463;-69
2022/07/10 02:32:26;;;;;;;5.77;5.37;;;;;;;;;;5015998;28;20400;-69
2022/07/10 02:34:53;;;;;;;5.87;5.27;;;;;;;;;;5015937;28;20833;-69
2022/07/10 02:37:19;;;;;;;5.27;4.73;;;;;;;;;;5016160;28;20404;-69
2022/07/10 02:39:45;;;;;;;5.30;5.07;;;;;;;;;;5015868;28;20413;-68
2022/07/10 02:42:11;;;;;;;6.03;5.70;;;;;;;;;;5015892;28;20413;-69
2022/07/10 02:44:37;;;;;;;5.27;5.10;;;;;;;;;;5015761;28;20738;-68
2022/07/10 02:47:03;;;;;;;4.47;4.37;;;;;;;;;;5015866;28;20462;-68
2022/07/10 02:49:29;;;;;;;5.00;4.80;;;;;;;;;;5015684;28;20477;-69
2022/07/10 02:51:55;;;;;;;8.13;5.23;;;;;;;;;;5015925;28;20766;-67
2022/07/10 02:54:21;;;;;;;6.07;5.57;;;;;;;;;;5014509;28;20426;-67
2022/07/10 02:56:47;;;;;;;7.63;5.47;;;;;;;;;;5015487;28;20417;-67
2022/07/10 02:59:13;;;;;;;6.30;6.00;;;;;;;;;;5015581;28;20403;-67
2022/07/10 03:01:39;;;;;;;5.00;4.80;;;;;;;;;;5015499;28;20415;-68
2022/07/10 03:04:05;;;;;;;5.43;5.13;;;;;;;;;;5015434;28;20519;-67
2022/07/10 03:06:31;;;;;;;5.17;4.97;;;;;;;;;;5015370;28;20432;-67
2022/07/10 03:08:57;;;;;;;7.93;5.40;;;;;;;;;;5015256;28;20472;-67
2022/07/10 03:11:23;;;;;;;6.30;5.90;;;;;;;;;;5015329;28;20436;-67
2022/07/10 03:13:49;;;;;;;5.37;5.17;;;;;;;;;;5015322;28;20841;-67
2022/07/10 03:16:15;;;;;;;5.47;5.27;;;;;;;;;;5015278;28;20449;-67
2022/07/10 03:18:41;;;;;;;5.63;5.53;;;;;;;;;;5015170;28;20441;-67
2022/07/10 03:21:07;;;;;;;6.40;6.00;;;;;;;;;;5015095;28;20406;-67
2022/07/10 03:23:32;;;;;;;6.77;6.37;;;;;;;;;;5015127;28;20736;-68
2022/07/10 03:25:58;;;;;;;6.77;6.27;;;;;;;;;;5015078;28;20931;-67
2022/07/10 03:28:24;;;;;;;7.00;6.43;;;;;;;;;;5014982;28;20790;-67
2022/07/10 03:30:51;;;;;;;6.40;6.10;;;;;;;;;;5014986;28;20424;-67
2022/07/10 03:33:17;;;;;;;7.60;6.93;;;;;;;;;;5014920;28;20399;-68
2022/07/10 03:35:43;;;;;;;7.47;6.97;;;;;;;;;;5014807;28;20474;-67
2022/07/10 03:38:09;;;;;;;6.50;6.10;;;;;;;;;;5014795;28;20452;-67
2022/07/10 03:40:35;;;;;;;9.97;7.80;;;;;;;;;;5014736;28;20423;-68
2022/07/10 03:43:01;;;;;;;8.13;7.60;;;;;;;;;;4997278;28;20461;-67
2022/07/10 03:45:27;;;;;;;7.10;6.70;;;;;;;;;;5014753;28;20451;-67
2022/07/10 03:47:53;;;;;;;7.70;7.30;;;;;;;;;;5014615;28;20422;-67
2022/07/10 03:50:19;;;;;;;8.10;7.37;;;;;;;;;;5014632;28;20910;-67
2022/07/10 03:52:46;;;;;;;7.93;7.20;;;;;;;;;;5014488;28;20417;-68
2022/07/10 03:55:12;;;;;;;8.50;8.00;;;;;;;;;;5014863;28;20436;-67
2022/07/10 03:57:53;;;;;;;7.07;6.73;;;;;;;;;;5014494;28;20508;-68
2022/07/10 04:00:19;;;;;;;7.87;7.37;;;;;;;;;;5014466;28;20416;-67
2022/07/10 04:02:45;;;;;;;6.90;6.50;;;;;;;;;;5014378;28;20410;-68
2022/07/10 04:05:11;;;;;;;8.53;7.90;;;;;;;;;;5010249;28;20483;-68
2022/07/10 04:07:37;;;;;;;8.80;8.20;;;;;;;;;;5014334;28;20415;-67
2022/07/10 04:10:03;;;;;;;8.23;7.57;;;;;;;;;;5014164;28;20464;-67
2022/07/10 04:12:29;;;;;;;7.00;6.40;;;;;;;;;;5014197;28;20410;-69
2022/07/10 04:14:56;;;;;;;7.23;6.63;;;;;;;;;;5014116;28;20418;-69
2022/07/10 04:17:22;;;;;;;6.73;6.43;;;;;;;;;;5014141;28;20901;-68
2022/07/10 04:19:48;;;;;;;7.10;6.70;;;;;;;;;;5014106;28;20899;-69
2022/07/10 04:22:14;;;;;;;7.27;6.60;;;;;;;;;;5014020;28;20417;-69
2022/07/10 04:24:40;;;;;;;7.00;6.50;;;;;;;;;;5013986;28;20952;-69
2022/07/10 04:27:06;;;;;;;6.73;6.33;;;;;;;;;;5013963;28;20426;-68
2022/07/10 04:29:32;;;;;;;6.10;5.90;;;;;;;;;;5012594;28;20484;-68
2022/07/10 04:31:58;;;;;;;6.17;5.97;;;;;;;;;;5012610;28;20529;-68
2022/07/10 04:34:24;;;;;;;5.77;5.47;;;;;;;;;;5012576;28;20437;-69
2022/07/10 04:36:50;;;;;;;5.40;5.10;;;;;;;;;;5013794;28;20416;-69
2022/07/10 04:39:16;;;;;;;5.67;5.40;;;;;;;;;;5013856;28;20415;-68
2022/07/10 04:41:42;;;;;;;4.87;4.53;;;;;;;;;;5013766;28;20876;-68
2022/07/10 04:44:08;;;;;;;4.83;4.63;;;;;;;;;;5013701;28;20848;-67
2022/07/10 04:46:34;;;;;;;4.73;4.50;;;;;;;;;;5013929;28;20410;-67
2022/07/10 04:49:00;;;;;;;4.60;4.30;;;;;;;;;;5013556;28;20560;-67
2022/07/10 04:51:26;;;;;;;3.90;3.80;;;;;;;;;;5013639;28;20529;-67
2022/07/10 04:53:52;;;;;;;4.23;3.87;;;;;;;;;;5013704;28;20503;-67
2022/07/10 04:56:18;;;;;;;4.37;4.03;;;;;;;;;;5013591;28;20457;-67
2022/07/10 04:58:45;;;;;;;4.17;3.73;;;;;;;;;;5013561;28;20407;-67
2022/07/10 05:01:11;;;;;;;5.03;3.40;;;;;;;;;;5013895;28;20475;-67
2022/07/10 05:03:37;;;;;;;4.30;3.40;;;;;;;;;;5013507;28;20463;-67
2022/07/10 05:06:03;;;;;;;3.60;3.50;;;;;;;;;;5013541;28;20411;-67
2022/07/10 05:08:29;;;;;;;9.07;8.27;;;;;;;;;;5013571;28;20574;-68
2022/07/10 05:10:55;;;;;;;11.63;10.63;;;;;;;;;;5013493;28;20468;-68
2022/07/10 05:13:20;;;;;;;3.47;3.27;;;;;;;;;;5013507;28;20426;-68
2022/07/10 05:15:47;;;;;;;4.07;3.77;;;;;;;;;;5013530;28;20415;-68
2022/07/10 05:18:13;;;;;;;4.23;3.40;;;;;;;;;;5016696;28;20503;-68
2022/07/10 05:20:42;;;;;;;2.93;2.83;;;;;;;;;;5017428;28;20485;-67
2022/07/10 05:23:08;;;;;;;3.00;2.90;;;;;;;;;;5017359;28;20756;-68
2022/07/10 05:25:34;;;;;;;3.50;3.30;;;;;;;;;;5017233;28;20419;-67
2022/07/10 05:28:00;;;;;;;2.90;2.60;;;;;;;;;;5017170;28;20403;-67
2022/07/10 05:30:26;;;;;;;3.13;2.90;;;;;;;;;;5017191;28;20954;-67
2022/07/10 05:32:52;;;;;;;8.00;3.03;;;;;;;;;;5017095;28;20424;-68
2022/07/10 05:35:18;;;;;;;3.20;2.93;;;;;;;;;;5017088;28;20469;-68
2022/07/10 05:37:44;;;;;;;3.20;3.00;;;;;;;;;;5017005;28;20765;-67
2022/07/10 05:40:10;;;;;;;6.77;3.37;;;;;;;;;;5017239;28;20774;-68
2022/07/10 05:42:36;;;;;;;3.00;2.90;;;;;;;;;;5016950;28;20552;-68
2022/07/10 05:45:03;;;;;;;3.50;2.90;;;;;;;;;;5016933;28;20903;-67
2022/07/10 05:47:29;;;;;;;2.73;2.53;;;;;;;;;;5017008;28;20889;-68
2022/07/10 05:49:55;;;;;;;6.03;5.43;;;;;;;;;;5016995;28;20471;-67
2022/07/10 05:52:21;;;;;;;4.87;3.30;;;;;;;;;;5016768;28;20408;-68
2022/07/10 05:54:47;;;;;;;3.20;3.10;;;;;;;;;;5016793;28;20874;-68
2022/07/10 05:57:13;;;;;;;4.00;2.60;;;;;;;;;;5016643;28;20781;-68
2022/07/10 05:59:39;;;;;;;8.83;3.87;;;;;;;;;;5016600;28;20406;-67
2022/07/10 06:02:05;;;;;;;2.63;2.53;;;;;;;;;;5016584;28;20929;-68
2022/07/10 06:04:31;;;;;;;3.47;2.50;;;;;;;;;;5016417;28;20496;-68
2022/07/10 06:06:57;;;;;;;3.23;2.90;;;;;;;;;;5016418;28;20887;-67
2022/07/10 06:09:23;;;;;;;2.47;2.37;;;;;;;;;;5016394;28;20466;-67
2022/07/10 06:11:49;;;;;;;5.70;2.57;;;;;;;;;;5016428;28;20477;-67
2022/07/10 06:14:15;;;;;;;3.00;2.80;;;;;;;;;;5016560;28;20406;-68
2022/07/10 06:16:41;;;;;;;2.67;2.07;;;;;;;;;;5016382;28;20408;-68
2022/07/10 06:19:07;;;;;;;3.10;2.87;;;;;;;;;;5016316;28;20765;-68
2022/07/10 06:21:33;;;;;;;4.30;2.63;;;;;;;;;;5016175;28;20404;-69
2022/07/10 06:23:59;;;;;;;3.57;2.60;;;;;;;;;;5016206;28;20417;-68
2022/07/10 06:26:25;;;;;;;2.83;2.50;;;;;;;;;;5016095;28;20410;-68
2022/07/10 06:28:51;;;;;;;12.10;10.90;;;;;;;;;;5015839;28;20613;-69
2022/07/10 06:31:17;;;;;;;3.50;2.50;;;;;;;;;;5016172;28;20916;-67
2022/07/10 06:33:43;;;;;;;3.93;2.80;;;;;;;;;;5016419;28;20470;-68
2022/07/10 06:36:09;;;;;;;2.70;2.50;;;;;;;;;;5016018;28;20400;-68
2022/07/10 06:38:35;;;;;;;2.90;2.80;;;;;;;;;;5015985;28;20899;-67
2022/07/10 06:41:01;;;;;;;2.87;2.60;;;;;;;;;;5015940;28;20451;-67
2022/07/10 06:43:27;;;;;;;3.67;2.90;;;;;;;;;;5015990;28;20412;-68
2022/07/10 06:45:53;;;;;;;4.93;2.63;;;;;;;;;;5015873;28;20828;-67
2022/07/10 06:48:20;;;;;;;6.30;2.40;;;;;;;;;;5015820;28;20462;-68
2022/07/10 06:50:46;;;;;;;21.53;2.70;;;;;;;;;;5016125;28;20470;-68
2022/07/10 06:53:12;;;;;;;3.33;2.40;;;;;;;;;;5015738;28;20415;-68
2022/07/10 06:55:38;;;;;;;5.67;2.60;;;;;;;;;;5015737;28;20834;-69
2022/07/10 06:58:04;;;;;;;5.70;2.63;;;;;;;;;;5015702;28;20384;-69
2022/07/10 07:00:30;;;;;;;2.77;2.67;;;;;;;;;;5015585;28;20493;-68
2022/07/10 07:02:56;;;;;;;2.80;2.60;;;;;;;;;;4997902;28;20417;-68
2022/07/10 07:05:22;;;;;;;4.23;2.37;;;;;;;;;;5015425;28;20466;-69
2022/07/10 07:07:48;;;;;;;2.53;2.37;;;;;;;;;;5015467;28;20400;-67
2022/07/10 07:10:14;;;;;;;2.70;2.33;;;;;;;;;;5015354;28;20566;-68
2022/07/10 07:12:40;;;;;;;6.60;3.00;;;;;;;;;;5015368;28;20393;-68
2022/07/10 07:15:06;;;;;;;3.47;2.50;;;;;;;;;;5015578;28;20400;-69
2022/07/10 07:17:46;;;;;;;5.13;2.50;;;;;;;;;;5015606;28;20508;-68
2022/07/10 07:23:09;;;;;;;6.07;2.97;;;;;;;;;;5015513;28;20417;-67
2022/07/10 07:25:36;;;;;;;4.50;2.10;;;;;;;;;;5015097;28;20449;-67
2022/07/10 07:28:02;;;;;;;7.87;5.93;;;;;;;;;;5015124;28;20812;-68
2022/07/10 07:30:28;;;;;;;5.73;5.23;;;;;;;;;;5015175;28;20425;-69
2022/07/10 07:32:54;;;;;;;6.67;2.90;;;;;;;;;;5015066;28;20880;-68
2022/07/10 07:35:20;;;;;;;4.53;2.73;;;;;;;;;;5014999;28;20463;-67
2022/07/10 07:37:47;;;;;;;7.20;3.20;;;;;;;;;;5014973;28;20408;-67
2022/07/10 07:40:14;;;;;;;3.70;2.40;;;;;;;;;;5014208;28;20405;-66
2022/07/10 07:42:40;;;;;;;5.37;2.40;;;;;;;;;;5014754;28;20755;-67
2022/07/10 07:45:07;;;;;;;3.03;2.70;;;;;;;;;;5014846;28;20915;-68
2022/07/10 07:47:43;;;;;;;3.60;2.60;;;;;;;;;;5014771;28;20410;-65
2022/07/10 07:50:09;;;;;;;2.70;2.50;;;;;;;;;;5014629;28;20539;-65
2022/07/10 07:52:35;;;;;;;2.67;2.17;;;;;;;;;;5014699;28;20500;-66
2022/07/10 07:55:01;;;;;;;2.93;2.60;;;;;;;;;;5014610;28;20413;-66
2022/07/10 07:57:27;;;;;;;2.87;2.50;;;;;;;;;;4996989;28;20427;-68
2022/07/10 07:59:53;;;;;;;5.90;2.23;;;;;;;;;;5014602;28;20457;-67
2022/07/10 08:02:19;;;;;;;2.67;2.50;;;;;;;;;;5014505;28;20441;-66
2022/07/10 08:04:45;;;;;;;2.17;2.03;;;;;;;;;;5014393;28;20959;-68
2022/07/10 08:07:11;;;;;;;2.23;2.13;;;;;;;;;;5014343;28;20769;-66
2022/07/10 08:09:38;;;;;;;2.13;2.00;;;;;;;;;;5009191;28;20581;-66
2022/07/10 08:12:05;;;;;;;1.60;1.60;;;;;;;;;;5004187;28;21051;-67
2022/07/10 08:14:30;;;;;;;2.07;1.93;;;;;;;;;;5002305;28;20408;-67
2022/07/10 08:16:56;;;;;;;3.33;2.73;;;;;;;;;;5003124;28;20802;-67
2022/07/10 08:19:22;;;;;;;4.60;2.70;;;;;;;;;;5003873;28;20519;-68
2022/07/10 08:21:48;;;;;;;3.27;2.50;;;;;;;;;;5002036;28;20408;-67
2022/07/10 08:24:14;;;;;;;3.17;2.90;;;;;;;;;;5004717;28;20902;-67
2022/07/10 08:26:41;;;;;;;2.37;2.00;;;;;;;;;;5002962;28;20424;-68
2022/07/10 08:29:07;;;;;;;14.23;10.60;;;;;;;;;;4994390;28;20529;-67
2022/07/10 08:31:33;;;;;;;6.20;2.30;;;;;;;;;;4993168;28;20421;-68
2022/07/10 08:33:59;;;;;;;5.70;2.80;;;;;;;;;;4994394;28;20420;-69
2022/07/10 08:36:26;;;;;;;5.57;2.53;;;;;;;;;;4994308;28;20894;-66
2022/07/10 08:38:53;;;;;;;4.67;2.50;;;;;;;;;;4994345;28;20890;-68
2022/07/10 08:41:21;;;;;;;6.67;2.60;;;;;;;;;;4994249;28;20512;-68
2022/07/10 08:43:47;;;;;;;4.27;2.40;;;;;;;;;;4994281;28;20904;-68
2022/07/10 08:46:14;;;;;;;3.43;2.23;;;;;;;;;;4994299;28;20409;-69
2022/07/10 08:48:41;;;;;;;2.87;2.60;;;;;;;;;;4994070;28;20464;-66
2022/07/10 08:51:07;;;;;;;2.00;1.90;;;;;;;;;;4994172;28;20415;-67
2022/07/10 08:53:34;;;;;;;3.03;2.73;;;;;;;;;;4994106;28;20408;-67
2022/07/10 08:56:00;;;;;;;4.83;2.60;;;;;;;;;;4994066;28;20920;-67
2022/07/10 08:58:31;;;;;;;3.13;2.30;;;;;;;;;;4994109;28;20409;-66
2022/07/10 09:00:57;;;;;;;4.40;2.50;;;;;;;;;;4994020;28;20412;-64
2022/07/10 09:03:23;;;;;;;4.43;2.40;;;;;;;;;;4993903;28;20431;-65
2022/07/10 09:05:51;;;;;;;2.90;2.40;;;;;;;;;;4993972;28;20453;-64
2022/07/10 09:08:28;;;;;;;2.67;2.57;;;;;;;;;;4993804;28;20499;-64
2022/07/10 09:11:13;;;;;;;2.80;2.60;;;;;;;;;;4994178;28;20467;-66
2022/07/10 09:13:52;;;;;;;5.10;2.90;;;;;;;;;;4993833;28;20740;-65
2022/07/10 09:16:25;;;;;;;3.87;2.73;;;;;;;;;;4993963;28;20431;-66
2022/07/10 09:18:51;;;;;;;5.80;2.50;;;;;;;;;;4993977;28;20411;-66
2022/07/10 09:21:17;;;;;;;2.50;2.40;;;;;;;;;;4993882;28;20508;-66
2022/07/10 09:23:43;;;;;;;2.80;2.60;;;;;;;;;;4994165;28;20443;-65
2022/07/10 09:26:09;;;;;;;2.37;2.27;;;;;;;;;;4993861;28;20431;-65
2022/07/10 09:28:35;;;;;;;2.87;2.63;;;;;;;;;;4993772;28;20473;-67
2022/07/10 09:31:01;;;;;;;5.43;2.33;;;;;;;;;;4993828;28;20428;-65
2022/07/10 09:33:31;;;;;;;5.80;2.60;;;;;;;;;;4994023;28;20420;-63
2022/07/10 09:36:06;;;;;;;5.67;2.83;;;;;;;;;;4993993;28;20408;-66
2022/07/10 09:38:44;;;;;;;4.43;2.60;;;;;;;;;;4994003;28;20408;-66
2022/07/10 09:41:17;;;;;;;2.77;2.57;;;;;;;;;;4993679;28;20963;-66
2022/07/10 09:43:44;;;;;;;2.53;2.33;;;;;;;;;;4993860;28;20407;-66
2022/07/10 09:46:10;;;;;;;2.93;2.40;;;;;;;;;;4993696;28;20901;-65
2022/07/10 09:48:36;;;;;;;4.10;2.10;;;;;;;;;;4993552;28;20550;-63
2022/07/10 09:51:03;;;;;;;4.00;2.20;;;;;;;;;;4993554;28;20412;-64
2022/07/10 09:53:29;;;;;;;3.97;2.23;;;;;;;;;;4993669;28;20409;-63
2022/07/10 09:55:57;;;;;;;2.80;2.60;;;;;;;;;;4993637;28;20427;-62
2022/07/10 09:58:26;;;;;;;2.77;2.57;;;;;;;;;;4993607;28;20431;-62
2022/07/10 10:00:53;;;;;;;3.23;2.20;;;;;;;;;;4993549;28;20884;-62
2022/07/10 10:03:21;;;;;;;2.20;2.10;;;;;;;;;;4994867;28;20892;-63
2022/07/10 10:05:54;;;;;;;2.60;2.40;;;;;;;;;;4997074;28;20508;-63
2022/07/10 10:08:29;;;;;;;2.60;2.40;;;;;;;;;;4996937;28;20468;-64
2022/07/10 10:10:57;;;;;;;3.53;2.73;;;;;;;;;;4996954;28;20424;-64
2022/07/10 10:13:24;;;;;;;6.93;2.90;;;;;;;;;;4997075;28;20481;-64
2022/07/10 10:15:51;;;;;;;3.77;2.60;;;;;;;;;;4997127;28;20432;-64
2022/07/10 10:18:22;;;;;;;3.87;3.43;;;;;;;;;;4996828;28;20878;-63
2022/07/10 10:20:49;;;;;;;2.10;2.00;;;;;;;;;;4997095;28;20449;-63
2022/07/10 10:23:20;;;;;;;2.43;2.30;;;;;;;;;;4996701;28;20414;-63
2022/07/10 10:25:47;;;;;;;3.60;2.70;;;;;;;;;;4996700;28;20433;-63
2022/07/10 10:28:14;;;;;;;6.13;3.80;;;;;;;;;;4996848;28;20418;-67
2022/07/10 10:30:41;;;;;;;3.50;2.60;;;;;;;;;;4996920;28;20464;-66
2022/07/10 10:33:25;;;;;;;5.07;2.37;;;;;;;;;;4996728;28;20405;-67
2022/07/10 10:35:51;;;;;;;2.50;2.30;;;;;;;;;;4996543;28;20906;-66
2022/07/10 10:38:17;;;;;;;5.77;2.40;;;;;;;;;;4996537;28;20414;-66
2022/07/10 10:40:43;;;;;;;3.03;2.93;;;;;;;;;;4996407;28;20872;-67
2022/07/10 10:43:19;;;;;;;3.17;2.93;;;;;;;;;;4996360;28;20500;-67
2022/07/10 10:45:45;;;;;;;5.47;2.40;;;;;;;;;;4996378;28;20422;-67
2022/07/10 10:48:13;;;;;;;5.80;2.70;;;;;;;;;;4996299;28;20825;-67
2022/07/10 10:50:42;;;;;;;4.13;2.00;;;;;;;;;;4996347;28;20864;-67
2022/07/10 10:53:19;;;;;;;2.23;2.07;;;;;;;;;;4996247;28;20495;-66
2022/07/10 10:56:00;;;;;;;1.80;1.80;;;;;;;;;;4996156;28;20540;-66
2022/07/10 10:58:27;;;;;;;2.37;2.20;;;;;;;;;;4996089;28;20925;-66
2022/07/10 11:01:02;;;;;;;2.07;1.97;;;;;;;;;;4996097;28;20778;-65
2022/07/10 11:03:28;;;;;;;2.37;2.27;;;;;;;;;;4995988;28;20479;-65
2022/07/10 11:05:54;;;;;;;2.67;2.47;;;;;;;;;;4995993;28;20495;-66
2022/07/10 11:08:43;;;;;;;2.70;2.50;;;;;;;;;;4996095;28;20461;-66
2022/07/10 11:11:28;;;;;;;2.53;2.27;;;;;;;;;;4970862;28;20428;-65
2022/07/10 11:13:57;;;;;;;2.63;2.43;;;;;;;;;;4995304;28;20454;-66
2022/07/10 11:16:24;;;;;;;2.37;2.27;;;;;;;;;;4995696;28;20507;-64
2022/07/10 11:18:53;;;;;;;3.13;2.30;;;;;;;;;;4995828;28;20411;-65
2022/07/10 11:21:23;;;;;;;1.80;1.70;;;;;;;;;;4995691;28;20418;-66
2022/07/10 11:23:52;;;;;;;3.73;2.40;;;;;;;;;;4995677;28;20434;-66
2022/07/10 11:26:27;;;;;;;2.10;2.00;;;;;;;;;;4995546;28;20438;-66
2022/07/10 11:28:54;;;;;;;2.17;2.07;;;;;;;;;;4995403;28;20476;-66
2022/07/10 11:31:21;;;;;;;2.30;1.53;;;;;;;;;;4995399;28;20419;-65
2022/07/10 11:33:48;;;;;;;2.00;1.80;;;;;;;;;;4994135;28;20433;-65
2022/07/10 11:36:25;;;;;;;2.10;2.00;;;;;;;;;;4995335;28;20447;-65
2022/07/10 11:38:56;;;;;;;3.77;2.20;;;;;;;;;;4995274;28;20504;-66
2022/07/10 11:41:23;;;;;;;2.10;2.00;;;;;;;;;;4995478;28;20429;-65
2022/07/10 11:43:50;;;;;;;2.60;2.03;;;;;;;;;;4995238;28;20408;-68
2022/07/10 11:46:16;;;;;;;9.17;8.07;;;;;;;;;;4995182;28;20415;-67
2022/07/10 11:48:42;;;;;;;6.63;1.80;;;;;;;;;;4995254;28;20457;-66
2022/07/10 11:51:27;;;;;;;2.07;1.60;;;;;;;;;;4995386;28;20567;-63
2022/07/10 11:53:54;;;;;;;2.93;1.43;;;;;;;;;;4995008;28;20404;-67
2022/07/10 11:56:20;;;;;;;1.43;1.33;;;;;;;;;;4995003;28;20790;-65
2022/07/10 11:59:19;;;;;;;1.90;1.80;;;;;;;;;;4995235;28;20391;-66
2022/07/10 12:01:45;;;;;;;2.50;1.70;;;;;;;;;;4962581;28;20446;-65
2022/07/10 12:04:11;;;;;;;2.00;1.83;;;;;;;;;;4994769;28;20956;-65
2022/07/10 12:06:38;;;;;;;4.83;1.60;;;;;;;;;;4994899;28;20516;-65
2022/07/10 12:09:08;;;;;;;2.23;2.13;;;;;;;;;;4994710;28;20464;-67
2022/07/10 12:11:35;;;;;;;2.40;2.10;;;;;;;;;;4994978;28;20426;-66
2022/07/10 12:14:18;;;;;;;9.77;2.10;;;;;;;;;;4994627;28;20925;-66
2022/07/10 12:16:44;;;;;;;4.40;1.67;;;;;;;;;;4994874;28;21011;-66
2022/07/10 12:19:11;;;;;;;2.70;1.40;;;;;;;;;;4994652;28;20426;-68
2022/07/10 12:21:38;;;;;;;5.97;1.47;;;;;;;;;;4994601;28;20405;-66
2022/07/10 12:24:04;;;;;;;2.50;1.67;;;;;;;;;;4994562;28;20408;-66
2022/07/10 12:26:37;;;;;;;1.40;1.40;;;;;;;;;;4994321;28;20507;-66
2022/07/10 12:29:03;;;;;;;2.97;1.63;;;;;;;;;;4994597;28;20477;-66
2022/07/10 12:31:34;;;;;;;3.70;2.10;;;;;;;;;;4994443;28;20417;-67
2022/07/10 12:34:04;;;;;;;1.47;1.27;;;;;;;;;;4994530;28;20903;-67
2022/07/10 12:36:45;;;;;;;1.63;1.53;;;;;;;;;;4994320;28;20533;-67
2022/07/10 12:39:12;;;;;;;1.93;1.50;;;;;;;;;;4993123;28;20433;-68
2022/07/10 12:41:56;;;;;;;1.10;1.10;;;;;;;;;;4994479;28;20425;-66
2022/07/10 12:44:32;;;;;;;1.70;1.57;;;;;;;;;;4994294;28;20414;-67
2022/07/10 12:47:03;;;;;;;1.23;1.23;;;;;;;;;;4994235;28;20475;-67
2022/07/10 12:49:29;;;;;;;3.10;1.73;;;;;;;;;;4994173;28;20473;-66
2022/07/10 12:51:55;;;;;;;1.43;1.30;;;;;;;;;;4992948;28;20886;-67
2022/07/10 12:54:34;;;;;;;1.60;1.50;;;;;;;;;;4994073;28;20424;-67
2022/07/10 12:57:00;;;;;;;6.03;1.30;;;;;;;;;;4994108;28;20917;-67
2022/07/10 12:59:28;;;;;;;2.10;1.37;;;;;;;;;;4994129;28;20497;-68
2022/07/10 13:01:54;;;;;;;2.30;1.60;;;;;;;;;;4994322;28;20406;-67
2022/07/10 13:04:24;;;;;;;1.60;1.50;;;;;;;;;;4993871;28;20833;-69
2022/07/10 13:06:50;;;;;;;1.80;1.60;;;;;;;;;;4993966;28;20406;-67
2022/07/10 13:09:21;;;;;;;2.97;1.40;;;;;;;;;;4994104;28;20484;-67
2022/07/10 13:11:47;;;;;;;3.13;1.30;;;;;;;;;;4994004;28;20469;-69
2022/07/10 13:14:13;;;;;;;2.80;1.50;;;;;;;;;;4994023;28;20414;-66
2022/07/10 13:16:39;;;;;;;3.83;1.63;;;;;;;;;;4994249;28;20509;-67
2022/07/10 13:19:05;;;;;;;3.73;1.23;;;;;;;;;;4994197;28;20437;-68
2022/07/10 13:21:31;;;;;;;1.50;1.17;;;;;;;;;;4993878;28;20409;-69
2022/07/10 13:23:57;;;;;;;2.00;1.30;;;;;;;;;;4993953;28;20904;-68
2022/07/10 13:26:23;;;;;;;3.87;1.30;;;;;;;;;;4993791;28;20419;-68
2022/07/10 13:28:49;;;;;;;1.43;1.43;;;;;;;;;;4993835;28;20464;-68
2022/07/10 13:31:15;;;;;;;3.50;1.80;;;;;;;;;;4994076;28;20420;-67
2022/07/10 13:33:41;;;;;;;2.33;1.50;;;;;;;;;;4993872;28;20459;-69
2022/07/10 13:36:08;;;;;;;1.37;1.30;;;;;;;;;;4993755;28;20875;-67
2022/07/10 13:38:34;;;;;;;1.40;1.30;;;;;;;;;;4995772;28;21083;-67
2022/07/10 13:41:00;;;;;;;1.10;0.90;;;;;;;;;;4997556;28;20424;-68
2022/07/10 13:43:28;;;;;;;1.20;1.20;;;;;;;;;;4997599;28;20440;-68
2022/07/10 13:45:57;;;;;;;1.07;1.07;;;;;;;;;;4997528;28;20412;-69
2022/07/10 13:48:25;;;;;;;1.00;1.00;;;;;;;;;;4997411;28;20407;-67
2022/07/10 13:50:51;;;;;;;1.07;1.03;;;;;;;;;;4997392;28;20399;-65
2022/07/10 13:53:17;;;;;;;1.93;1.20;;;;;;;;;;4997343;28;20434;-69
2022/07/10 13:55:44;;;;;;;1.80;1.30;;;;;;;;;;4997266;28;20939;-66
2022/07/10 13:58:10;;;;;;;1.50;0.97;;;;;;;;;;4996103;28;20528;-66
2022/07/10 14:00:36;;;;;;;1.53;1.07;;;;;;;;;;4997291;28;20421;-66
2022/07/10 14:03:03;;;;;;;1.53;1.27;;;;;;;;;;4997038;28;20426;-65
2022/07/10 14:05:29;;;;;;;2.20;1.03;;;;;;;;;;4996991;28;21054;-69
2022/07/10 14:07:55;;;;;;;1.47;1.37;;;;;;;;;;4997068;28;20405;-68
2022/07/10 14:10:21;;;;;;;1.13;1.10;;;;;;;;;;4996947;28;20558;-66
2022/07/10 14:12:47;;;;;;;3.33;1.07;;;;;;;;;;4997021;28;20401;-67
2022/07/10 14:15:13;;;;;;;2.93;1.17;;;;;;;;;;4996939;28;20498;-65
2022/07/10 14:17:39;;;;;;;2.30;1.10;;;;;;;;;;4997194;28;20391;-67
2022/07/10 14:20:05;;;;;;;1.10;1.10;;;;;;;;;;4996822;28;20416;-66
2022/07/10 14:22:32;;;;;;;1.00;1.00;;;;;;;;;;4996831;28;20405;-65
2022/07/10 14:24:58;;;;;;;0.90;0.90;;;;;;;;;;4996771;28;20424;-66
2022/07/10 14:27:24;;;;;;;4.10;0.93;;;;;;;;;;4996671;28;20421;-67
2022/07/10 14:29:50;;;;;;;1.27;0.80;;;;;;;;;;4996696;28;20486;-66
2022/07/10 14:32:17;;;;;;;1.90;1.10;;;;;;;;;;4996579;28;20455;-67
2022/07/10 14:34:43;;;;;;;1.27;1.00;;;;;;;;;;4996640;28;20407;-66
2022/07/10 14:37:09;;;;;;;1.10;1.10;;;;;;;;;;4995309;28;20466;-67
2022/07/10 14:39:36;;;;;;;2.43;1.00;;;;;;;;;;4996502;28;20501;-65
2022/07/10 14:42:02;;;;;;;1.20;1.10;;;;;;;;;;4996451;28;20421;-66
2022/07/10 14:44:28;;;;;;;0.80;0.80;;;;;;;;;;4996398;28;20421;-65
2022/07/10 14:46:54;;;;;;;0.63;0.63;;;;;;;;;;4996423;28;20502;-65
2022/07/10 14:49:19;;;;;;;5.50;1.17;;;;;;;;;;4996168;28;20576;-65